AFL297 WADD-UUEE
Flight info
| Callsign | AFL297 |
|---|---|
| Flight time | N/A |
| Altitude | 36000 |
| Route | KOLTA G464 PNK N875 BOBOB M761 VPK M751 VKB A334 TAXEB/N0493F380 A334 HTY W14 PUT L515 OBMOG M770 KAKID M875 BUTOP/N0495F400 M875 JHANG A466 SITAX M875 AMDAR/K0920F400 M875 MILSO M161 DENUD T784 LARNO T291 URIDU L158 DIMGI DIMGI3E |
| Aircraft | A359/H-SDE2E3GHIJ3J4J5LM1ORWXY/LB1D1 |
Departure
| Time | N/A |
|---|---|
| Airport | Denpasar I Gusti Ngurah Rai International Airport (WADD) |
Arrival
| Time | 2026-04-30 10:15 |
|---|---|
| Airport | Sheremetyevo International Airport (UUEE) |
| Time | Latitude | Longitude | Altitude | Speed | Heading |
|---|---|---|---|---|---|
| 2026-04-30 08:28 | 50.00153 | 53.68705 | 37078 ft | 498 kts | 305° |
| 2026-04-30 08:28 | 50.02419 | 53.64630 | 37513 ft | 496 kts | 305° |
| 2026-04-30 08:29 | 50.04639 | 53.60626 | 37914 ft | 495 kts | 305° |
| 2026-04-30 08:29 | 50.06896 | 53.56548 | 38089 ft | 497 kts | 305° |
| 2026-04-30 08:29 | 50.09148 | 53.52470 | 38102 ft | 496 kts | 305° |
| 2026-04-30 08:30 | 50.13641 | 53.44320 | 38106 ft | 496 kts | 305° |
| 2026-04-30 08:30 | 50.18128 | 53.36157 | 38105 ft | 496 kts | 304° |
| 2026-04-30 08:31 | 50.22599 | 53.27996 | 38110 ft | 495 kts | 304° |
| 2026-04-30 08:31 | 50.27088 | 53.19779 | 38114 ft | 495 kts | 304° |
| 2026-04-30 08:32 | 50.31528 | 53.11625 | 38113 ft | 495 kts | 304° |
| 2026-04-30 08:32 | 50.36001 | 53.03385 | 38115 ft | 495 kts | 304° |
| 2026-04-30 08:33 | 50.40447 | 52.95167 | 38100 ft | 495 kts | 304° |
| 2026-04-30 08:33 | 50.44905 | 52.86903 | 38114 ft | 495 kts | 304° |
| 2026-04-30 08:34 | 50.49339 | 52.78655 | 38113 ft | 496 kts | 304° |
| 2026-04-30 08:34 | 50.53795 | 52.70340 | 38115 ft | 496 kts | 304° |
| 2026-04-30 08:35 | 50.58238 | 52.62023 | 38121 ft | 496 kts | 304° |
| 2026-04-30 08:35 | 50.62682 | 52.53678 | 38119 ft | 497 kts | 304° |
| 2026-04-30 08:36 | 50.67119 | 52.45318 | 38123 ft | 497 kts | 304° |
| 2026-04-30 08:36 | 50.71536 | 52.36997 | 38117 ft | 498 kts | 304° |
| 2026-04-30 08:37 | 50.74272 | 52.31858 | 38122 ft | 498 kts | 304° |
| 2026-04-30 08:37 | 50.78409 | 52.24079 | 38120 ft | 499 kts | 304° |
| 2026-04-30 08:38 | 50.82873 | 52.15656 | 38125 ft | 499 kts | 304° |
| 2026-04-30 08:38 | 50.87328 | 52.07217 | 38124 ft | 499 kts | 304° |
| 2026-04-30 08:39 | 50.91776 | 51.98760 | 38128 ft | 500 kts | 303° |
| 2026-04-30 08:39 | 50.96220 | 51.90285 | 38130 ft | 500 kts | 303° |
| 2026-04-30 08:40 | 51.00664 | 51.81780 | 38132 ft | 501 kts | 303° |
| 2026-04-30 08:40 | 51.05106 | 51.73252 | 38135 ft | 501 kts | 303° |
| 2026-04-30 08:41 | 51.09544 | 51.64702 | 38132 ft | 501 kts | 303° |
| 2026-04-30 08:41 | 51.14059 | 51.56303 | 38132 ft | 507 kts | 309° |
| 2026-04-30 08:42 | 51.19664 | 51.49274 | 38129 ft | 516 kts | 320° |
| 2026-04-30 08:42 | 51.25625 | 51.42878 | 38132 ft | 518 kts | 321° |
| 2026-04-30 08:43 | 51.31654 | 51.36545 | 38134 ft | 518 kts | 321° |
| 2026-04-30 08:43 | 51.37667 | 51.30179 | 38137 ft | 518 kts | 321° |
| 2026-04-30 08:44 | 51.43664 | 51.23771 | 38151 ft | 518 kts | 321° |
| 2026-04-30 08:44 | 51.49667 | 51.17380 | 38139 ft | 518 kts | 321° |
| 2026-04-30 08:45 | 51.55653 | 51.11070 | 38142 ft | 518 kts | 321° |
| 2026-04-30 08:45 | 51.61687 | 51.04692 | 38150 ft | 518 kts | 321° |
| 2026-04-30 08:46 | 51.67955 | 50.98899 | 38198 ft | 527 kts | 333° |
| 2026-04-30 08:46 | 51.71441 | 50.96988 | 38456 ft | 531 kts | 339° |
| 2026-04-30 08:46 | 51.74995 | 50.95327 | 38875 ft | 529 kts | 340° |
| 2026-04-30 08:46 | 51.78538 | 50.93776 | 39204 ft | 527 kts | 341° |
| 2026-04-30 08:47 | 51.82087 | 50.92269 | 39472 ft | 526 kts | 341° |
| 2026-04-30 08:47 | 51.85627 | 50.90777 | 39724 ft | 526 kts | 341° |
| 2026-04-30 08:47 | 51.89168 | 50.89274 | 39965 ft | 525 kts | 341° |
| 2026-04-30 08:47 | 51.92567 | 50.87387 | 40133 ft | 521 kts | 332° |
| 2026-04-30 08:48 | 51.95763 | 50.84723 | 40155 ft | 514 kts | 323° |
| 2026-04-30 08:48 | 52.01367 | 50.77704 | 40161 ft | 507 kts | 314° |
| 2026-04-30 08:49 | 52.06696 | 50.70176 | 40166 ft | 507 kts | 313° |
| 2026-04-30 08:49 | 52.11984 | 50.62575 | 40167 ft | 507 kts | 313° |
| 2026-04-30 08:50 | 52.17282 | 50.54992 | 40165 ft | 508 kts | 314° |
| 2026-04-30 08:50 | 52.22597 | 50.47400 | 40167 ft | 508 kts | 314° |
| 2026-04-30 08:51 | 52.27910 | 50.39800 | 40164 ft | 508 kts | 314° |
| 2026-04-30 08:51 | 52.33219 | 50.32177 | 40166 ft | 508 kts | 314° |
| 2026-04-30 08:52 | 52.38517 | 50.24542 | 40168 ft | 508 kts | 314° |
| 2026-04-30 08:52 | 52.43820 | 50.16875 | 40172 ft | 508 kts | 314° |
| 2026-04-30 08:53 | 52.49083 | 50.09241 | 40175 ft | 508 kts | 314° |
| 2026-04-30 08:53 | 52.54333 | 50.01499 | 40171 ft | 506 kts | 310° |
| 2026-04-30 08:54 | 52.58523 | 49.92440 | 40175 ft | 494 kts | 296° |
| 2026-04-30 08:54 | 52.61903 | 49.82607 | 40177 ft | 493 kts | 294° |
| 2026-04-30 08:55 | 52.65147 | 49.72641 | 40172 ft | 493 kts | 293° |
| 2026-04-30 08:55 | 52.68381 | 49.62660 | 40176 ft | 494 kts | 293° |
| 2026-04-30 08:56 | 52.71080 | 49.54357 | 40174 ft | 494 kts | 294° |
| 2026-04-30 08:56 | 52.74329 | 49.44361 | 40178 ft | 494 kts | 294° |
| 2026-04-30 08:57 | 52.78093 | 49.32740 | 40179 ft | 494 kts | 294° |
| 2026-04-30 08:57 | 52.80804 | 49.24334 | 40178 ft | 494 kts | 294° |
| 2026-04-30 08:58 | 52.84008 | 49.14359 | 40178 ft | 494 kts | 293° |
| 2026-04-30 08:58 | 52.87222 | 49.04310 | 40181 ft | 494 kts | 293° |
| 2026-04-30 08:59 | 52.90426 | 48.94252 | 40183 ft | 494 kts | 293° |
| 2026-04-30 08:59 | 52.93626 | 48.84166 | 40182 ft | 494 kts | 293° |
| 2026-04-30 09:00 | 52.96815 | 48.74077 | 40183 ft | 494 kts | 293° |
| 2026-04-30 09:00 | 52.99978 | 48.63984 | 40185 ft | 493 kts | 293° |
| 2026-04-30 09:01 | 53.03136 | 48.53869 | 40187 ft | 493 kts | 293° |
| 2026-04-30 09:01 | 53.06288 | 48.43738 | 40179 ft | 493 kts | 293° |
| 2026-04-30 09:02 | 53.11407 | 48.28890 | 40177 ft | 499 kts | 304° |
| 2026-04-30 09:02 | 53.16207 | 48.20457 | 40177 ft | 503 kts | 311° |
| 2026-04-30 09:03 | 53.21273 | 48.12368 | 40172 ft | 504 kts | 313° |
| 2026-04-30 09:03 | 53.26327 | 48.04380 | 40170 ft | 503 kts | 313° |
| 2026-04-30 09:04 | 53.31395 | 47.96291 | 40171 ft | 503 kts | 312° |
| 2026-04-30 09:04 | 53.36439 | 47.88169 | 40170 ft | 503 kts | 312° |
| 2026-04-30 09:05 | 53.41470 | 47.80030 | 40166 ft | 503 kts | 312° |
| 2026-04-30 09:05 | 53.46498 | 47.71869 | 40168 ft | 503 kts | 312° |
| 2026-04-30 09:06 | 53.51497 | 47.63742 | 40166 ft | 503 kts | 312° |
| 2026-04-30 09:06 | 53.56507 | 47.55549 | 40163 ft | 502 kts | 312° |
| 2026-04-30 09:07 | 53.61513 | 47.47333 | 40165 ft | 502 kts | 312° |
| 2026-04-30 09:07 | 53.66505 | 47.39114 | 40162 ft | 502 kts | 312° |
| 2026-04-30 09:08 | 53.71497 | 47.30870 | 40163 ft | 501 kts | 312° |
| 2026-04-30 09:08 | 53.76476 | 47.22617 | 40155 ft | 501 kts | 312° |
| 2026-04-30 09:09 | 53.81461 | 47.14340 | 40152 ft | 501 kts | 312° |
| 2026-04-30 09:09 | 53.86383 | 47.06112 | 40151 ft | 501 kts | 311° |
| 2026-04-30 09:10 | 53.91337 | 46.97796 | 40152 ft | 501 kts | 311° |
| 2026-04-30 09:10 | 53.96281 | 46.89474 | 40149 ft | 501 kts | 311° |
| 2026-04-30 09:11 | 54.01218 | 46.81139 | 40147 ft | 500 kts | 311° |
| 2026-04-30 09:11 | 54.06156 | 46.72787 | 40147 ft | 500 kts | 311° |
| 2026-04-30 09:12 | 54.11086 | 46.64412 | 40133 ft | 500 kts | 311° |
| 2026-04-30 09:12 | 54.16012 | 46.56010 | 40138 ft | 500 kts | 311° |
| 2026-04-30 09:13 | 54.20895 | 46.47654 | 40154 ft | 500 kts | 311° |
| 2026-04-30 09:13 | 54.25832 | 46.39178 | 40142 ft | 500 kts | 311° |
| 2026-04-30 09:14 | 54.30734 | 46.30734 | 40145 ft | 500 kts | 311° |
| 2026-04-30 09:14 | 54.35597 | 46.22324 | 40146 ft | 500 kts | 311° |
| 2026-04-30 09:15 | 54.40491 | 46.13831 | 40145 ft | 500 kts | 311° |
| 2026-04-30 09:15 | 54.45383 | 46.05331 | 40146 ft | 500 kts | 311° |
| 2026-04-30 09:16 | 54.50268 | 45.96786 | 40144 ft | 500 kts | 311° |
| 2026-04-30 09:16 | 54.55135 | 45.88234 | 40147 ft | 500 kts | 311° |
| 2026-04-30 09:17 | 54.60009 | 45.79646 | 40149 ft | 501 kts | 311° |
| 2026-04-30 09:17 | 54.64842 | 45.71103 | 40146 ft | 501 kts | 311° |
| 2026-04-30 09:18 | 54.69702 | 45.62483 | 40143 ft | 501 kts | 311° |
| 2026-04-30 09:18 | 54.74613 | 45.53918 | 40145 ft | 502 kts | 316° |
| 2026-04-30 09:19 | 54.80189 | 45.46577 | 40141 ft | 505 kts | 322° |
| 2026-04-30 09:19 | 54.85949 | 45.39570 | 40145 ft | 505 kts | 323° |
| 2026-04-30 09:20 | 54.91722 | 45.32620 | 40144 ft | 505 kts | 323° |
| 2026-04-30 09:20 | 54.97501 | 45.25617 | 40143 ft | 505 kts | 323° |
| 2026-04-30 09:21 | 55.03221 | 45.18639 | 40145 ft | 505 kts | 322° |
| 2026-04-30 09:21 | 55.09013 | 45.11537 | 40145 ft | 505 kts | 322° |
| 2026-04-30 09:22 | 55.14721 | 45.04514 | 40146 ft | 505 kts | 322° |
| 2026-04-30 09:22 | 55.20467 | 44.97420 | 40147 ft | 505 kts | 322° |
| 2026-04-30 09:23 | 55.26209 | 44.90304 | 40148 ft | 505 kts | 323° |
| 2026-04-30 09:23 | 55.31327 | 44.81986 | 40146 ft | 499 kts | 306° |
| 2026-04-30 09:24 | 55.34847 | 44.71593 | 40149 ft | 495 kts | 294° |
| 2026-04-30 09:24 | 55.37817 | 44.60667 | 40149 ft | 495 kts | 292° |
| 2026-04-30 09:25 | 55.40704 | 44.49663 | 40149 ft | 495 kts | 292° |
| 2026-04-30 09:25 | 55.43598 | 44.38667 | 40155 ft | 495 kts | 293° |
| 2026-04-30 09:26 | 55.46511 | 44.27636 | 40154 ft | 495 kts | 293° |
| 2026-04-30 09:26 | 55.49394 | 44.16693 | 40156 ft | 495 kts | 293° |
| 2026-04-30 09:27 | 55.52287 | 44.05658 | 40161 ft | 495 kts | 293° |
| 2026-04-30 09:27 | 55.55167 | 43.94616 | 40162 ft | 495 kts | 293° |
| 2026-04-30 09:28 | 55.58042 | 43.83538 | 40167 ft | 495 kts | 293° |
| 2026-04-30 09:28 | 55.61218 | 43.72716 | 40171 ft | 497 kts | 297° |
| 2026-04-30 09:29 | 55.64648 | 43.62100 | 40175 ft | 497 kts | 298° |
| 2026-04-30 09:29 | 55.68110 | 43.51490 | 40176 ft | 497 kts | 298° |
| 2026-04-30 09:30 | 55.71561 | 43.40862 | 40175 ft | 497 kts | 298° |
| 2026-04-30 09:30 | 55.75001 | 43.30199 | 40180 ft | 497 kts | 298° |
| 2026-04-30 09:31 | 55.78257 | 43.19447 | 40178 ft | 496 kts | 291° |
| 2026-04-30 09:31 | 55.79998 | 43.07671 | 40184 ft | 492 kts | 276° |
| 2026-04-30 09:32 | 55.80788 | 42.95574 | 40183 ft | 493 kts | 274° |
| 2026-04-30 09:32 | 55.81432 | 42.83453 | 40186 ft | 493 kts | 274° |
| 2026-04-30 09:33 | 55.82071 | 42.71291 | 40184 ft | 493 kts | 274° |
| 2026-04-30 09:33 | 55.82519 | 42.62908 | 40183 ft | 494 kts | 274° |
| 2026-04-30 09:34 | 55.83156 | 42.50992 | 40184 ft | 494 kts | 274° |
| 2026-04-30 09:34 | 55.83792 | 42.38911 | 40183 ft | 494 kts | 274° |
| 2026-04-30 09:35 | 55.84420 | 42.26737 | 40187 ft | 494 kts | 274° |
| 2026-04-30 09:35 | 55.85035 | 42.14573 | 40194 ft | 494 kts | 274° |
| 2026-04-30 09:36 | 55.85639 | 42.02384 | 40195 ft | 494 kts | 274° |
| 2026-04-30 09:36 | 55.86230 | 41.90195 | 40195 ft | 494 kts | 274° |
| 2026-04-30 09:37 | 55.86682 | 41.78000 | 40200 ft | 493 kts | 268° |
| 2026-04-30 09:37 | 55.86440 | 41.65795 | 40197 ft | 493 kts | 266° |
| 2026-04-30 09:38 | 55.86074 | 41.53602 | 40199 ft | 493 kts | 266° |
| 2026-04-30 09:38 | 55.85679 | 41.41388 | 40202 ft | 493 kts | 266° |
| 2026-04-30 09:39 | 55.85281 | 41.29207 | 40202 ft | 493 kts | 266° |
| 2026-04-30 09:39 | 55.84875 | 41.17000 | 40205 ft | 494 kts | 266° |
| 2026-04-30 09:40 | 55.84463 | 41.04847 | 39519 ft | 490 kts | 266° |
| 2026-04-30 09:40 | 55.84252 | 40.98765 | 38717 ft | 495 kts | 266° |
| 2026-04-30 09:40 | 55.84038 | 40.92712 | 37821 ft | 498 kts | 266° |
| 2026-04-30 09:41 | 55.83814 | 40.86475 | 36984 ft | 499 kts | 266° |
| 2026-04-30 09:41 | 55.83594 | 40.80411 | 36195 ft | 499 kts | 266° |
| 2026-04-30 09:41 | 55.83367 | 40.74239 | 35425 ft | 499 kts | 266° |
| 2026-04-30 09:41 | 55.83137 | 40.68082 | 34626 ft | 500 kts | 266° |
| 2026-04-30 09:42 | 55.82904 | 40.61904 | 33754 ft | 499 kts | 266° |
| 2026-04-30 09:42 | 55.82668 | 40.55763 | 32824 ft | 497 kts | 266° |
| 2026-04-30 09:42 | 55.82419 | 40.49633 | 31890 ft | 495 kts | 265° |
| 2026-04-30 09:42 | 55.82168 | 40.43539 | 30949 ft | 493 kts | 265° |
| 2026-04-30 09:43 | 55.81917 | 40.37479 | 29972 ft | 490 kts | 265° |
| 2026-04-30 09:43 | 55.81665 | 40.31459 | 28993 ft | 485 kts | 265° |
| 2026-04-30 09:43 | 55.81414 | 40.25517 | 28221 ft | 478 kts | 265° |
| 2026-04-30 09:43 | 55.81167 | 40.19723 | 27975 ft | 462 kts | 265° |
| 2026-04-30 09:44 | 55.80926 | 40.14133 | 27847 ft | 445 kts | 265° |
| 2026-04-30 09:44 | 55.80691 | 40.08748 | 27730 ft | 429 kts | 265° |
| 2026-04-30 09:44 | 55.80463 | 40.03560 | 27609 ft | 414 kts | 265° |
| 2026-04-30 09:44 | 55.80241 | 39.98551 | 27473 ft | 401 kts | 264° |
| 2026-04-30 09:45 | 55.80022 | 39.93687 | 27313 ft | 389 kts | 264° |
| 2026-04-30 09:45 | 55.79808 | 39.88960 | 26998 ft | 381 kts | 264° |
| 2026-04-30 09:45 | 55.79598 | 39.84257 | 26465 ft | 380 kts | 265° |
| 2026-04-30 09:45 | 55.79670 | 39.79592 | 26037 ft | 377 kts | 277° |
| 2026-04-30 09:46 | 55.79977 | 39.76575 | 25884 ft | 372 kts | 280° |
| 2026-04-30 09:46 | 55.80700 | 39.70662 | 25576 ft | 369 kts | 281° |
| 2026-04-30 09:46 | 55.81072 | 39.67649 | 25391 ft | 368 kts | 281° |
| 2026-04-30 09:46 | 55.81615 | 39.63214 | 25126 ft | 367 kts | 281° |
| 2026-04-30 09:47 | 55.82324 | 39.57357 | 24778 ft | 364 kts | 280° |
| 2026-04-30 09:47 | 55.82853 | 39.52964 | 24520 ft | 362 kts | 280° |
| 2026-04-30 09:47 | 55.83208 | 39.49998 | 24338 ft | 361 kts | 280° |
| 2026-04-30 09:47 | 55.83727 | 39.45646 | 24076 ft | 359 kts | 280° |
| 2026-04-30 09:48 | 55.84244 | 39.41305 | 23823 ft | 357 kts | 280° |
| 2026-04-30 09:48 | 55.84755 | 39.36984 | 23532 ft | 356 kts | 281° |
| 2026-04-30 09:48 | 55.85262 | 39.32685 | 23267 ft | 355 kts | 281° |
| 2026-04-30 09:48 | 55.85761 | 39.28440 | 23017 ft | 354 kts | 281° |
| 2026-04-30 09:49 | 55.86264 | 39.24148 | 22763 ft | 353 kts | 281° |
| 2026-04-30 09:49 | 55.86764 | 39.19871 | 22494 ft | 353 kts | 281° |
| 2026-04-30 09:49 | 55.87262 | 39.15600 | 22248 ft | 352 kts | 281° |
| 2026-04-30 09:49 | 55.87757 | 39.11340 | 21996 ft | 351 kts | 281° |
| 2026-04-30 09:50 | 55.88249 | 39.07095 | 21746 ft | 350 kts | 281° |
| 2026-04-30 09:50 | 55.88738 | 39.02859 | 21492 ft | 349 kts | 281° |
| 2026-04-30 09:50 | 55.89224 | 38.98638 | 21243 ft | 348 kts | 281° |
| 2026-04-30 09:50 | 55.89709 | 38.94412 | 20990 ft | 347 kts | 281° |
| 2026-04-30 09:51 | 55.90191 | 38.90196 | 20743 ft | 346 kts | 281° |
| 2026-04-30 09:51 | 55.90669 | 38.86002 | 20490 ft | 345 kts | 281° |
| 2026-04-30 09:51 | 55.91145 | 38.81811 | 20234 ft | 344 kts | 281° |
| 2026-04-30 09:51 | 55.91618 | 38.77633 | 19990 ft | 343 kts | 281° |
| 2026-04-30 09:52 | 55.92087 | 38.73475 | 19750 ft | 342 kts | 282° |
| 2026-04-30 09:52 | 55.92554 | 38.69327 | 19499 ft | 341 kts | 282° |
| 2026-04-30 09:52 | 55.93018 | 38.65184 | 19249 ft | 340 kts | 282° |
| 2026-04-30 09:52 | 55.93474 | 38.61107 | 19015 ft | 339 kts | 282° |
| 2026-04-30 09:53 | 55.93934 | 38.56987 | 18769 ft | 338 kts | 282° |
| 2026-04-30 09:53 | 55.94390 | 38.52881 | 18518 ft | 337 kts | 282° |
| 2026-04-30 09:53 | 55.94844 | 38.48784 | 18260 ft | 336 kts | 282° |
| 2026-04-30 09:53 | 55.95294 | 38.44708 | 18016 ft | 335 kts | 282° |
| 2026-04-30 09:54 | 55.95741 | 38.40645 | 17776 ft | 333 kts | 282° |
| 2026-04-30 09:54 | 55.96186 | 38.36591 | 17535 ft | 332 kts | 282° |
| 2026-04-30 09:54 | 55.96629 | 38.32547 | 17293 ft | 331 kts | 282° |
| 2026-04-30 09:54 | 55.97066 | 38.28526 | 17055 ft | 330 kts | 282° |
| 2026-04-30 09:55 | 55.97502 | 38.24514 | 16810 ft | 328 kts | 282° |
| 2026-04-30 09:55 | 55.97934 | 38.20524 | 16580 ft | 327 kts | 282° |
| 2026-04-30 09:55 | 55.98363 | 38.16542 | 16347 ft | 326 kts | 282° |
| 2026-04-30 09:55 | 55.98790 | 38.12577 | 16111 ft | 325 kts | 282° |
| 2026-04-30 09:56 | 55.99216 | 38.08602 | 15878 ft | 324 kts | 282° |
| 2026-04-30 09:56 | 55.99633 | 38.04697 | 15719 ft | 315 kts | 282° |
| 2026-04-30 09:56 | 56.00040 | 38.00919 | 15512 ft | 305 kts | 282° |
| 2026-04-30 09:56 | 56.00697 | 37.97386 | 15305 ft | 296 kts | 298° |
| 2026-04-30 09:57 | 56.01945 | 37.94503 | 14968 ft | 293 kts | 317° |
| 2026-04-30 09:57 | 56.03477 | 37.92108 | 14652 ft | 292 kts | 320° |
| 2026-04-30 09:57 | 56.05034 | 37.89785 | 14339 ft | 292 kts | 320° |
| 2026-04-30 09:57 | 56.06584 | 37.87454 | 14055 ft | 291 kts | 320° |
| 2026-04-30 09:58 | 56.08126 | 37.85116 | 13741 ft | 289 kts | 320° |
| 2026-04-30 09:58 | 56.09653 | 37.82789 | 13444 ft | 288 kts | 320° |
| 2026-04-30 09:58 | 56.11173 | 37.80463 | 13156 ft | 287 kts | 319° |
| 2026-04-30 09:58 | 56.12685 | 37.78146 | 12861 ft | 285 kts | 319° |
| 2026-04-30 09:59 | 56.15664 | 37.73567 | 12296 ft | 282 kts | 319° |
| 2026-04-30 09:59 | 56.18647 | 37.68969 | 11717 ft | 280 kts | 319° |
| 2026-04-30 10:00 | 56.21566 | 37.64460 | 11165 ft | 277 kts | 319° |
| 2026-04-30 10:00 | 56.23024 | 37.62205 | 10882 ft | 276 kts | 319° |
| 2026-04-30 10:01 | 56.25922 | 37.57714 | 10326 ft | 274 kts | 319° |
| 2026-04-30 10:01 | 56.27362 | 37.55479 | 10049 ft | 273 kts | 319° |
| 2026-04-30 10:01 | 56.28795 | 37.53252 | 9749 ft | 271 kts | 319° |
| 2026-04-30 10:02 | 56.30801 | 37.47685 | 9265 ft | 270 kts | 280° |
| 2026-04-30 10:02 | 56.30701 | 37.44313 | 9043 ft | 274 kts | 256° |
| 2026-04-30 10:02 | 56.29858 | 37.41249 | 8781 ft | 274 kts | 238° |
| 2026-04-30 10:02 | 56.28778 | 37.38420 | 8529 ft | 275 kts | 237° |
| 2026-04-30 10:03 | 56.27683 | 37.35603 | 8305 ft | 274 kts | 237° |
| 2026-04-30 10:03 | 56.26531 | 37.32872 | 8080 ft | 275 kts | 229° |
| 2026-04-30 10:03 | 56.24975 | 37.30908 | 7892 ft | 274 kts | 204° |
| 2026-04-30 10:03 | 56.23130 | 37.30352 | 7745 ft | 267 kts | 177° |
| 2026-04-30 10:04 | 56.21339 | 37.30981 | 7586 ft | 258 kts | 165° |
| 2026-04-30 10:04 | 56.19652 | 37.31860 | 7375 ft | 254 kts | 164° |
| 2026-04-30 10:04 | 56.18024 | 37.33134 | 7110 ft | 251 kts | 145° |
| 2026-04-30 10:04 | 56.16945 | 37.35451 | 6858 ft | 246 kts | 112° |
| 2026-04-30 10:05 | 56.16691 | 37.38413 | 6614 ft | 240 kts | 81° |
| 2026-04-30 10:05 | 56.17052 | 37.41323 | 6394 ft | 238 kts | 72° |
| 2026-04-30 10:05 | 56.17512 | 37.44172 | 6195 ft | 238 kts | 72° |
| 2026-04-30 10:05 | 56.17967 | 37.47023 | 6002 ft | 237 kts | 72° |
| 2026-04-30 10:06 | 56.18367 | 37.49600 | 5820 ft | 237 kts | 72° |
| 2026-04-30 10:06 | 56.18800 | 37.52443 | 5626 ft | 236 kts | 72° |
| 2026-04-30 10:06 | 56.19220 | 37.55283 | 5428 ft | 235 kts | 74° |
| 2026-04-30 10:06 | 56.19310 | 37.58214 | 5240 ft | 238 kts | 98° |
| 2026-04-30 10:07 | 56.18614 | 37.60877 | 5123 ft | 239 kts | 128° |
| 2026-04-30 10:07 | 56.17483 | 37.63069 | 5001 ft | 239 kts | 135° |
| 2026-04-30 10:07 | 56.16313 | 37.65147 | 4896 ft | 240 kts | 135° |
| 2026-04-30 10:07 | 56.15121 | 37.67280 | 4787 ft | 239 kts | 134° |
| 2026-04-30 10:08 | 56.13967 | 37.69365 | 4643 ft | 239 kts | 134° |
| 2026-04-30 10:08 | 56.12805 | 37.71477 | 4582 ft | 235 kts | 134° |
| 2026-04-30 10:08 | 56.11683 | 37.73519 | 4468 ft | 225 kts | 134° |
| 2026-04-30 10:08 | 56.10606 | 37.75479 | 4353 ft | 217 kts | 134° |
| 2026-04-30 10:09 | 56.09415 | 37.77020 | 4206 ft | 209 kts | 160° |
| 2026-04-30 10:09 | 56.08014 | 37.77152 | 4135 ft | 202 kts | 194° |
| 2026-04-30 10:09 | 56.06666 | 37.76451 | 4020 ft | 202 kts | 200° |
| 2026-04-30 10:09 | 56.05332 | 37.75639 | 3875 ft | 203 kts | 200° |
| 2026-04-30 10:10 | 56.03993 | 37.74839 | 3761 ft | 203 kts | 200° |
| 2026-04-30 10:10 | 56.02689 | 37.73969 | 3632 ft | 196 kts | 210° |
| 2026-04-30 10:10 | 56.01740 | 37.72348 | 3516 ft | 186 kts | 247° |
| 2026-04-30 10:10 | 56.01334 | 37.70190 | 3443 ft | 185 kts | 259° |
| 2026-04-30 10:11 | 56.01029 | 37.67965 | 3353 ft | 183 kts | 259° |
| 2026-04-30 10:11 | 56.00721 | 37.65765 | 3257 ft | 183 kts | 259° |
| 2026-04-30 10:11 | 56.00415 | 37.63623 | 3145 ft | 172 kts | 258° |
| 2026-04-30 10:11 | 56.00130 | 37.61655 | 2961 ft | 158 kts | 258° |
| 2026-04-30 10:12 | 55.99860 | 37.59836 | 2824 ft | 145 kts | 259° |
| 2026-04-30 10:12 | 55.99608 | 37.58138 | 2603 ft | 138 kts | 259° |
| 2026-04-30 10:12 | 55.99367 | 37.56489 | 2303 ft | 136 kts | 259° |
| 2026-04-30 10:12 | 55.99130 | 37.54861 | 2005 ft | 134 kts | 259° |
| 2026-04-30 10:13 | 55.98894 | 37.53290 | 1816 ft | 129 kts | 259° |
| 2026-04-30 10:13 | 55.98665 | 37.51746 | 1593 ft | 129 kts | 259° |
| 2026-04-30 10:13 | 55.98438 | 37.50213 | 1388 ft | 129 kts | 258° |
| 2026-04-30 10:13 | 55.98207 | 37.48666 | 1176 ft | 128 kts | 259° |
| 2026-04-30 10:14 | 55.97979 | 37.47127 | 1005 ft | 128 kts | 259° |
| 2026-04-30 10:14 | 55.97753 | 37.45599 | 816 ft | 127 kts | 258° |
| 2026-04-30 10:14 | 55.97331 | 37.42747 | 649 ft | 107 kts | 255° |
| 2026-04-30 10:15 | 55.97164 | 37.41664 | 645 ft | 76 kts | 251° |
| 2026-04-30 10:15 | 55.97054 | 37.40899 | 647 ft | 51 kts | 257° |
| 2026-04-30 10:15 | 55.96983 | 37.40442 | 648 ft | 31 kts | 256° |
| 2026-04-30 10:15 | 55.96943 | 37.40151 | 647 ft | 13 kts | 258° |
| 2026-04-30 10:16 | 55.96988 | 37.40040 | 646 ft | 11 kts | 346° |
| 2026-04-30 10:16 | 55.97077 | 37.40000 | 645 ft | 15 kts | 346° |
| 2026-04-30 10:16 | 55.97191 | 37.39948 | 644 ft | 19 kts | 345° |
| 2026-04-30 10:17 | 55.97335 | 37.39914 | 645 ft | 6 kts | 31° |
| 2026-04-30 10:17 | 55.97408 | 37.40338 | 647 ft | 30 kts | 75° |
| 2026-04-30 10:17 | 55.97465 | 37.40713 | 647 ft | 32 kts | 75° |
| 2026-04-30 10:18 | 55.97524 | 37.41111 | 645 ft | 34 kts | 75° |
| 2026-04-30 10:18 | 55.97587 | 37.41529 | 645 ft | 36 kts | 75° |
| 2026-04-30 10:18 | 55.97621 | 37.41608 | 645 ft | 3 kts | 350° |
| 2026-04-30 10:19 | 55.97674 | 37.41542 | 646 ft | 6 kts | 279° |
| 2026-04-30 10:19 | 55.97695 | 37.41480 | 649 ft | 5 kts | 326° |
| 2026-04-30 10:19 | 55.97743 | 37.41454 | 645 ft | 9 kts | 345° |
| 2026-04-30 10:19 | 55.97815 | 37.41419 | 645 ft | 12 kts | 346° |
| 2026-04-30 10:20 | 55.97899 | 37.41381 | 645 ft | 9 kts | 345° |
| 2026-04-30 10:20 | 55.97934 | 37.41252 | 648 ft | 1 kts | 255° |
| 2026-04-30 10:20 | 55.97929 | 37.41223 | 647 ft | 0 kts | 255° |